sensor_id;sensor_type;location;lat;lon;timestamp;P1;durP1;ratioP1;P2;durP2;ratioP2
67712;SDS011;54503;55.784;49.138;2022-07-04T00:01:29;3.80;;;1.60;;
67712;SDS011;54503;55.784;49.138;2022-07-04T00:06:34;5.10;;;1.87;;
67712;SDS011;54503;55.784;49.138;2022-07-04T00:11:39;5.53;;;2.10;;
67712;SDS011;54503;55.784;49.138;2022-07-04T00:16:58;5.17;;;1.65;;
67712;SDS011;54503;55.784;49.138;2022-07-04T00:22:03;4.55;;;1.80;;
67712;SDS011;54503;55.784;49.138;2022-07-04T00:27:22;4.67;;;1.50;;
67712;SDS011;54503;55.784;49.138;2022-07-04T00:32:41;5.90;;;2.10;;
67712;SDS011;54503;55.784;49.138;2022-07-04T00:38:00;5.60;;;1.80;;
67712;SDS011;54503;55.784;49.138;2022-07-04T00:48:44;5.40;;;1.80;;
67712;SDS011;54503;55.784;49.138;2022-07-04T00:53:50;5.42;;;1.70;;
67712;SDS011;54503;55.784;49.138;2022-07-04T00:58:55;5.27;;;1.80;;
67712;SDS011;54503;55.784;49.138;2022-07-04T01:04:01;3.70;;;1.62;;
67712;SDS011;54503;55.784;49.138;2022-07-04T01:09:21;4.17;;;1.72;;
67712;SDS011;54503;55.784;49.138;2022-07-04T01:14:26;5.15;;;1.90;;
67712;SDS011;54503;55.784;49.138;2022-07-04T01:19:45;6.37;;;1.98;;
67712;SDS011;54503;55.784;49.138;2022-07-04T01:24:50;7.70;;;2.67;;
67712;SDS011;54503;55.784;49.138;2022-07-04T01:29:55;5.17;;;2.60;;
67712;SDS011;54503;55.784;49.138;2022-07-04T01:35:14;5.20;;;2.42;;
67712;SDS011;54503;55.784;49.138;2022-07-04T01:40:19;4.60;;;2.20;;
67712;SDS011;54503;55.784;49.138;2022-07-04T01:45:44;5.90;;;2.95;;
67712;SDS011;54503;55.784;49.138;2022-07-04T01:50:49;8.38;;;2.90;;
67712;SDS011;54503;55.784;49.138;2022-07-04T01:56:09;6.37;;;3.23;;
67712;SDS011;54503;55.784;49.138;2022-07-04T02:01:28;6.40;;;3.20;;
67712;SDS011;54503;55.784;49.138;2022-07-04T02:06:47;6.43;;;3.10;;
67712;SDS011;54503;55.784;49.138;2022-07-04T02:12:06;5.75;;;3.52;;
67712;SDS011;54503;55.784;49.138;2022-07-04T02:17:31;6.87;;;3.40;;
67712;SDS011;54503;55.784;49.138;2022-07-04T02:22:37;7.53;;;4.00;;
67712;SDS011;54503;55.784;49.138;2022-07-04T02:27:42;8.93;;;3.98;;
67712;SDS011;54503;55.784;49.138;2022-07-04T02:32:47;7.73;;;3.97;;
67712;SDS011;54503;55.784;49.138;2022-07-04T02:38:07;9.77;;;3.93;;
67712;SDS011;54503;55.784;49.138;2022-07-04T02:43:12;7.25;;;3.72;;
67712;SDS011;54503;55.784;49.138;2022-07-04T02:48:18;6.45;;;3.52;;
67712;SDS011;54503;55.784;49.138;2022-07-04T02:53:40;8.03;;;3.90;;
67712;SDS011;54503;55.784;49.138;2022-07-04T02:58:45;7.40;;;3.95;;
67712;SDS011;54503;55.784;49.138;2022-07-04T03:04:04;10.08;;;4.10;;
67712;SDS011;54503;55.784;49.138;2022-07-04T03:09:23;6.97;;;3.93;;
67712;SDS011;54503;55.784;49.138;2022-07-04T03:14:46;6.33;;;4.10;;
67712;SDS011;54503;55.784;49.138;2022-07-04T03:19:51;12.05;;;4.30;;
67712;SDS011;54503;55.784;49.138;2022-07-04T03:24:57;10.88;;;4.90;;
67712;SDS011;54503;55.784;49.138;2022-07-04T03:30:16;12.47;;;6.40;;
67712;SDS011;54503;55.784;49.138;2022-07-04T03:35:35;6.75;;;4.20;;
67712;SDS011;54503;55.784;49.138;2022-07-04T03:40:54;5.92;;;3.40;;
67712;SDS011;54503;55.784;49.138;2022-07-04T03:46:00;6.83;;;3.57;;
67712;SDS011;54503;55.784;49.138;2022-07-04T03:51:04;5.42;;;2.98;;
67712;SDS011;54503;55.784;49.138;2022-07-04T03:56:10;7.95;;;2.92;;
67712;SDS011;54503;55.784;49.138;2022-07-04T04:01:28;11.05;;;3.15;;
67712;SDS011;54503;55.784;49.138;2022-07-04T04:06:33;6.40;;;3.10;;
67712;SDS011;54503;55.784;49.138;2022-07-04T04:11:52;6.10;;;2.60;;
67712;SDS011;54503;55.784;49.138;2022-07-04T04:17:12;7.07;;;2.50;;
67712;SDS011;54503;55.784;49.138;2022-07-04T04:22:31;6.30;;;2.40;;
67712;SDS011;54503;55.784;49.138;2022-07-04T04:27:50;7.83;;;2.65;;
67712;SDS011;54503;55.784;49.138;2022-07-04T04:32:55;3.77;;;2.10;;
67712;SDS011;54503;55.784;49.138;2022-07-04T04:38:00;4.67;;;2.30;;
67712;SDS011;54503;55.784;49.138;2022-07-04T04:43:06;4.55;;;2.10;;
67712;SDS011;54503;55.784;49.138;2022-07-04T04:48:10;13.60;;;2.57;;
67712;SDS011;54503;55.784;49.138;2022-07-04T04:53:30;8.28;;;2.15;;
67712;SDS011;54503;55.784;49.138;2022-07-04T04:58:35;6.50;;;2.23;;
67712;SDS011;54503;55.784;49.138;2022-07-04T05:14:34;4.40;;;2.63;;
67712;SDS011;54503;55.784;49.138;2022-07-04T05:19:44;4.83;;;2.40;;
67712;SDS011;54503;55.784;49.138;2022-07-04T05:25:03;5.50;;;2.47;;
67712;SDS011;54503;55.784;49.138;2022-07-04T05:30:09;4.08;;;2.30;;
67712;SDS011;54503;55.784;49.138;2022-07-04T05:35:14;8.90;;;2.50;;
67712;SDS011;54503;55.784;49.138;2022-07-04T05:40:33;10.13;;;2.83;;
67712;SDS011;54503;55.784;49.138;2022-07-04T05:45:52;16.57;;;2.90;;
67712;SDS011;54503;55.784;49.138;2022-07-04T05:51:11;23.50;;;3.70;;
67712;SDS011;54503;55.784;49.138;2022-07-04T05:56:16;7.20;;;2.67;;
67712;SDS011;54503;55.784;49.138;2022-07-04T06:01:21;7.10;;;2.93;;
67712;SDS011;54503;55.784;49.138;2022-07-04T06:06:43;8.30;;;3.23;;
67712;SDS011;54503;55.784;49.138;2022-07-04T06:11:50;19.65;;;3.35;;
67712;SDS011;54503;55.784;49.138;2022-07-04T06:16:55;5.92;;;2.55;;
67712;SDS011;54503;55.784;49.138;2022-07-04T06:22:14;8.35;;;3.50;;
67712;SDS011;54503;55.784;49.138;2022-07-04T06:32:55;13.08;;;3.42;;
67712;SDS011;54503;55.784;49.138;2022-07-04T06:38:01;6.60;;;3.20;;
67712;SDS011;54503;55.784;49.138;2022-07-04T06:43:07;8.28;;;3.17;;
67712;SDS011;54503;55.784;49.138;2022-07-04T06:48:27;8.25;;;3.42;;
67712;SDS011;54503;55.784;49.138;2022-07-04T06:53:33;25.97;;;4.17;;
67712;SDS011;54503;55.784;49.138;2022-07-04T06:58:52;6.97;;;3.25;;
67712;SDS011;54503;55.784;49.138;2022-07-04T07:03:57;8.60;;;4.43;;
67712;SDS011;54503;55.784;49.138;2022-07-04T07:09:02;6.03;;;3.52;;
67712;SDS011;54503;55.784;49.138;2022-07-04T07:14:21;11.15;;;4.37;;
67712;SDS011;54503;55.784;49.138;2022-07-04T07:19:26;9.80;;;2.80;;
67712;SDS011;54503;55.784;49.138;2022-07-04T07:30:07;7.95;;;3.22;;
67712;SDS011;54503;55.784;49.138;2022-07-04T07:35:12;11.40;;;4.73;;
67712;SDS011;54503;55.784;49.138;2022-07-04T07:40:31;11.40;;;3.65;;
67712;SDS011;54503;55.784;49.138;2022-07-04T07:45:37;8.83;;;3.20;;
67712;SDS011;54503;55.784;49.138;2022-07-04T07:50:56;6.97;;;3.60;;
67712;SDS011;54503;55.784;49.138;2022-07-04T07:56:15;9.90;;;3.35;;
67712;SDS011;54503;55.784;49.138;2022-07-04T08:01:20;8.60;;;3.77;;
67712;SDS011;54503;55.784;49.138;2022-07-04T08:06:27;13.07;;;3.97;;
67712;SDS011;54503;55.784;49.138;2022-07-04T08:11:32;12.18;;;3.72;;
67712;SDS011;54503;55.784;49.138;2022-07-04T08:16:37;9.58;;;3.42;;
67712;SDS011;54503;55.784;49.138;2022-07-04T08:21:58;11.45;;;4.40;;
67712;SDS011;54503;55.784;49.138;2022-07-04T08:27:30;6.90;;;3.45;;
67712;SDS011;54503;55.784;49.138;2022-07-04T08:32:35;20.80;;;4.15;;
67712;SDS011;54503;55.784;49.138;2022-07-04T08:37:41;7.53;;;3.63;;
67712;SDS011;54503;55.784;49.138;2022-07-04T08:48:39;6.87;;;3.47;;
67712;SDS011;54503;55.784;49.138;2022-07-04T08:59:21;6.93;;;3.00;;
67712;SDS011;54503;55.784;49.138;2022-07-04T09:04:26;8.25;;;3.70;;
67712;SDS011;54503;55.784;49.138;2022-07-04T09:09:32;9.03;;;3.30;;
67712;SDS011;54503;55.784;49.138;2022-07-04T09:15:11;9.10;;;2.90;;
67712;SDS011;54503;55.784;49.138;2022-07-04T09:20:16;8.00;;;4.00;;
67712;SDS011;54503;55.784;49.138;2022-07-04T09:25:36;9.08;;;3.00;;
67712;SDS011;54503;55.784;49.138;2022-07-04T09:36:26;6.33;;;2.63;;
67712;SDS011;54503;55.784;49.138;2022-07-04T09:41:49;6.60;;;2.55;;
67712;SDS011;54503;55.784;49.138;2022-07-04T09:53:04;5.67;;;2.20;;
67712;SDS011;54503;55.784;49.138;2022-07-04T09:58:25;5.00;;;2.30;;
67712;SDS011;54503;55.784;49.138;2022-07-04T10:14:39;15.70;;;2.60;;
67712;SDS011;54503;55.784;49.138;2022-07-04T10:19:58;9.13;;;1.92;;
67712;SDS011;54503;55.784;49.138;2022-07-04T10:25:18;5.00;;;1.80;;
67712;SDS011;54503;55.784;49.138;2022-07-04T10:41:09;5.00;;;1.77;;
67712;SDS011;54503;55.784;49.138;2022-07-04T10:51:37;4.90;;;1.50;;
67712;SDS011;54503;55.784;49.138;2022-07-04T11:08:16;7.10;;;1.40;;
67712;SDS011;54503;55.784;49.138;2022-07-04T11:13:35;3.25;;;1.20;;
67712;SDS011;54503;55.784;49.138;2022-07-04T11:18:42;4.37;;;1.37;;
67712;SDS011;54503;55.784;49.138;2022-07-04T11:29:28;4.57;;;1.30;;
67712;SDS011;54503;55.784;49.138;2022-07-04T11:34:33;6.20;;;1.70;;
67712;SDS011;54503;55.784;49.138;2022-07-04T11:45:37;4.10;;;1.93;;
67712;SDS011;54503;55.784;49.138;2022-07-04T11:50:56;4.35;;;1.65;;
67712;SDS011;54503;55.784;49.138;2022-07-04T11:56:15;4.67;;;1.40;;
67712;SDS011;54503;55.784;49.138;2022-07-04T12:12:07;5.00;;;2.10;;
67712;SDS011;54503;55.784;49.138;2022-07-04T12:17:14;9.30;;;1.70;;
67712;SDS011;54503;55.784;49.138;2022-07-04T12:28:00;6.70;;;1.70;;
67712;SDS011;54503;55.784;49.138;2022-07-04T12:33:29;8.00;;;1.40;;
67712;SDS011;54503;55.784;49.138;2022-07-04T12:38:35;6.15;;;1.92;;
67712;SDS011;54503;55.784;49.138;2022-07-04T12:49:18;3.90;;;1.50;;
67712;SDS011;54503;55.784;49.138;2022-07-04T12:54:23;3.15;;;1.35;;
67712;SDS011;54503;55.784;49.138;2022-07-04T12:59:28;10.53;;;2.17;;
67712;SDS011;54503;55.784;49.138;2022-07-04T13:04:47;4.55;;;1.50;;
67712;SDS011;54503;55.784;49.138;2022-07-04T13:09:51;8.73;;;1.70;;
67712;SDS011;54503;55.784;49.138;2022-07-04T13:15:11;6.20;;;2.27;;
67712;SDS011;54503;55.784;49.138;2022-07-04T13:20:30;9.60;;;2.02;;
67712;SDS011;54503;55.784;49.138;2022-07-04T13:25:49;5.60;;;1.20;;
67712;SDS011;54503;55.784;49.138;2022-07-04T13:31:08;6.58;;;1.40;;
67712;SDS011;54503;55.784;49.138;2022-07-04T13:36:15;6.67;;;1.60;;
67712;SDS011;54503;55.784;49.138;2022-07-04T13:41:21;6.25;;;1.55;;
67712;SDS011;54503;55.784;49.138;2022-07-04T13:46:40;22.50;;;1.87;;
67712;SDS011;54503;55.784;49.138;2022-07-04T14:07:57;6.33;;;1.60;;
67712;SDS011;54503;55.784;49.138;2022-07-04T14:13:19;5.97;;;1.50;;
67712;SDS011;54503;55.784;49.138;2022-07-04T14:18:44;11.10;;;1.70;;
67712;SDS011;54503;55.784;49.138;2022-07-04T14:23:49;4.50;;;1.35;;
67712;SDS011;54503;55.784;49.138;2022-07-04T14:28:54;5.03;;;1.50;;
67712;SDS011;54503;55.784;49.138;2022-07-04T14:50:10;5.37;;;1.50;;
67712;SDS011;54503;55.784;49.138;2022-07-04T14:55:41;5.80;;;1.60;;
67712;SDS011;54503;55.784;49.138;2022-07-04T15:01:02;5.45;;;1.57;;
67712;SDS011;54503;55.784;49.138;2022-07-04T15:06:08;6.63;;;2.10;;
67712;SDS011;54503;55.784;49.138;2022-07-04T15:11:14;7.05;;;1.90;;
67712;SDS011;54503;55.784;49.138;2022-07-04T15:16:48;6.35;;;1.30;;
67712;SDS011;54503;55.784;49.138;2022-07-04T15:22:25;6.90;;;3.25;;
67712;SDS011;54503;55.784;49.138;2022-07-04T15:27:20;3.53;;;1.33;;
67712;SDS011;54503;55.784;49.138;2022-07-04T15:32:25;10.35;;;2.30;;
67712;SDS011;54503;55.784;49.138;2022-07-04T15:37:44;6.50;;;1.57;;
67712;SDS011;54503;55.784;49.138;2022-07-04T15:43:03;10.87;;;4.20;;
67712;SDS011;54503;55.784;49.138;2022-07-04T15:48:09;6.10;;;1.80;;
67712;SDS011;54503;55.784;49.138;2022-07-04T15:53:27;9.83;;;4.78;;
67712;SDS011;54503;55.784;49.138;2022-07-04T15:58:32;5.80;;;2.53;;
67712;SDS011;54503;55.784;49.138;2022-07-04T16:03:51;6.33;;;1.65;;
67712;SDS011;54503;55.784;49.138;2022-07-04T16:15:04;10.93;;;1.43;;
67712;SDS011;54503;55.784;49.138;2022-07-04T16:20:09;5.90;;;1.30;;
67712;SDS011;54503;55.784;49.138;2022-07-04T16:25:15;5.30;;;1.50;;
67712;SDS011;54503;55.784;49.138;2022-07-04T16:30:33;4.00;;;1.40;;
67712;SDS011;54503;55.784;49.138;2022-07-04T16:36:01;9.60;;;2.70;;
67712;SDS011;54503;55.784;49.138;2022-07-04T16:46:47;6.40;;;1.83;;
67712;SDS011;54503;55.784;49.138;2022-07-04T16:52:13;4.43;;;2.10;;
67712;SDS011;54503;55.784;49.138;2022-07-04T16:57:18;6.78;;;2.80;;
67712;SDS011;54503;55.784;49.138;2022-07-04T17:02:24;7.87;;;2.72;;
67712;SDS011;54503;55.784;49.138;2022-07-04T17:07:30;4.07;;;1.70;;
67712;SDS011;54503;55.784;49.138;2022-07-04T17:12:51;6.35;;;1.60;;
67712;SDS011;54503;55.784;49.138;2022-07-04T17:17:57;5.70;;;2.12;;
67712;SDS011;54503;55.784;49.138;2022-07-04T17:23:16;9.27;;;2.10;;
67712;SDS011;54503;55.784;49.138;2022-07-04T17:28:36;6.15;;;2.98;;
67712;SDS011;54503;55.784;49.138;2022-07-04T17:33:41;6.37;;;1.80;;
67712;SDS011;54503;55.784;49.138;2022-07-04T17:39:00;6.20;;;1.55;;
67712;SDS011;54503;55.784;49.138;2022-07-04T17:44:04;8.90;;;2.72;;
67712;SDS011;54503;55.784;49.138;2022-07-04T17:49:23;9.38;;;2.08;;
67712;SDS011;54503;55.784;49.138;2022-07-04T17:54:30;6.60;;;1.87;;
67712;SDS011;54503;55.784;49.138;2022-07-04T17:59:49;7.33;;;2.00;;
67712;SDS011;54503;55.784;49.138;2022-07-04T18:05:08;5.77;;;2.23;;
67712;SDS011;54503;55.784;49.138;2022-07-04T18:10:29;8.53;;;4.17;;
67712;SDS011;54503;55.784;49.138;2022-07-04T18:15:48;7.17;;;2.95;;
67712;SDS011;54503;55.784;49.138;2022-07-04T18:20:54;8.03;;;2.90;;
67712;SDS011;54503;55.784;49.138;2022-07-04T18:26:00;10.23;;;2.27;;
67712;SDS011;54503;55.784;49.138;2022-07-04T18:31:07;7.70;;;1.40;;
67712;SDS011;54503;55.784;49.138;2022-07-04T18:36:27;3.72;;;1.22;;
67712;SDS011;54503;55.784;49.138;2022-07-04T18:41:46;5.25;;;1.37;;
67712;SDS011;54503;55.784;49.138;2022-07-04T18:47:11;8.50;;;2.10;;
67712;SDS011;54503;55.784;49.138;2022-07-04T18:52:15;6.47;;;1.40;;
67712;SDS011;54503;55.784;49.138;2022-07-04T18:57:21;5.13;;;0.87;;
67712;SDS011;54503;55.784;49.138;2022-07-04T19:02:40;7.95;;;2.05;;
67712;SDS011;54503;55.784;49.138;2022-07-04T19:08:00;5.35;;;1.62;;
67712;SDS011;54503;55.784;49.138;2022-07-04T19:13:21;3.33;;;1.13;;
67712;SDS011;54503;55.784;49.138;2022-07-04T19:18:27;7.10;;;0.72;;
67712;SDS011;54503;55.784;49.138;2022-07-04T19:23:33;5.23;;;1.63;;
67712;SDS011;54503;55.784;49.138;2022-07-04T19:28:39;5.47;;;2.08;;
67712;SDS011;54503;55.784;49.138;2022-07-04T19:33:59;5.55;;;0.98;;
67712;SDS011;54503;55.784;49.138;2022-07-04T19:39:20;5.17;;;2.25;;
67712;SDS011;54503;55.784;49.138;2022-07-04T19:44:26;5.30;;;0.70;;
67712;SDS011;54503;55.784;49.138;2022-07-04T19:49:32;5.08;;;0.70;;
67712;SDS011;54503;55.784;49.138;2022-07-04T19:54:38;6.23;;;2.70;;
67712;SDS011;54503;55.784;49.138;2022-07-04T20:06:03;4.10;;;1.17;;
67712;SDS011;54503;55.784;49.138;2022-07-04T20:11:08;9.60;;;2.37;;
67712;SDS011;54503;55.784;49.138;2022-07-04T20:16:37;3.57;;;0.80;;
67712;SDS011;54503;55.784;49.138;2022-07-04T20:21:43;3.55;;;0.93;;
67712;SDS011;54503;55.784;49.138;2022-07-04T20:32:13;2.90;;;0.60;;
67712;SDS011;54503;55.784;49.138;2022-07-04T20:37:18;3.75;;;0.65;;
67712;SDS011;54503;55.784;49.138;2022-07-04T20:42:24;2.37;;;0.50;;
67712;SDS011;54503;55.784;49.138;2022-07-04T20:47:30;6.53;;;1.17;;
67712;SDS011;54503;55.784;49.138;2022-07-04T20:52:49;5.85;;;1.40;;
67712;SDS011;54503;55.784;49.138;2022-07-04T20:57:55;8.93;;;1.72;;
67712;SDS011;54503;55.784;49.138;2022-07-04T21:03:03;5.40;;;1.30;;
67712;SDS011;54503;55.784;49.138;2022-07-04T21:08:23;7.53;;;1.40;;
67712;SDS011;54503;55.784;49.138;2022-07-04T21:13:42;6.97;;;1.87;;
67712;SDS011;54503;55.784;49.138;2022-07-04T21:19:01;3.60;;;1.20;;
67712;SDS011;54503;55.784;49.138;2022-07-04T21:24:07;5.47;;;1.35;;
67712;SDS011;54503;55.784;49.138;2022-07-04T21:29:12;5.13;;;1.43;;
67712;SDS011;54503;55.784;49.138;2022-07-04T21:34:17;4.85;;;1.25;;
67712;SDS011;54503;55.784;49.138;2022-07-04T21:39:36;7.70;;;1.47;;
67712;SDS011;54503;55.784;49.138;2022-07-04T21:44:41;8.25;;;1.20;;
67712;SDS011;54503;55.784;49.138;2022-07-04T21:49:50;5.75;;;1.65;;
67712;SDS011;54503;55.784;49.138;2022-07-04T21:55:10;7.17;;;1.40;;
67712;SDS011;54503;55.784;49.138;2022-07-04T22:00:29;6.83;;;1.35;;
67712;SDS011;54503;55.784;49.138;2022-07-04T22:05:34;6.28;;;1.60;;
67712;SDS011;54503;55.784;49.138;2022-07-04T22:10:40;6.00;;;1.50;;
67712;SDS011;54503;55.784;49.138;2022-07-04T22:15:46;13.50;;;1.80;;
67712;SDS011;54503;55.784;49.138;2022-07-04T22:20:51;6.30;;;1.70;;
67712;SDS011;54503;55.784;49.138;2022-07-04T22:26:10;6.78;;;1.57;;
67712;SDS011;54503;55.784;49.138;2022-07-04T22:31:29;4.58;;;1.50;;
67712;SDS011;54503;55.784;49.138;2022-07-04T22:36:34;8.40;;;1.70;;
67712;SDS011;54503;55.784;49.138;2022-07-04T22:41:39;8.05;;;1.60;;
67712;SDS011;54503;55.784;49.138;2022-07-04T22:46:44;5.40;;;1.40;;
67712;SDS011;54503;55.784;49.138;2022-07-04T22:51:49;11.63;;;1.70;;
67712;SDS011;54503;55.784;49.138;2022-07-04T22:57:09;7.03;;;1.35;;
67712;SDS011;54503;55.784;49.138;2022-07-04T23:02:16;9.73;;;1.47;;
67712;SDS011;54503;55.784;49.138;2022-07-04T23:07:22;5.50;;;1.20;;
67712;SDS011;54503;55.784;49.138;2022-07-04T23:12:41;3.67;;;1.05;;
67712;SDS011;54503;55.784;49.138;2022-07-04T23:18:00;8.20;;;1.13;;
67712;SDS011;54503;55.784;49.138;2022-07-04T23:23:19;13.93;;;1.40;;
67712;SDS011;54503;55.784;49.138;2022-07-04T23:28:25;8.77;;;1.27;;
67712;SDS011;54503;55.784;49.138;2022-07-04T23:33:31;8.88;;;1.55;;
67712;SDS011;54503;55.784;49.138;2022-07-04T23:38:36;7.85;;;1.50;;
67712;SDS011;54503;55.784;49.138;2022-07-04T23:43:46;10.13;;;2.20;;
67712;SDS011;54503;55.784;49.138;2022-07-04T23:49:05;7.70;;;2.30;;
67712;SDS011;54503;55.784;49.138;2022-07-04T23:54:24;8.57;;;2.43;;
67712;SDS011;54503;55.784;49.138;2022-07-04T23:59:32;8.10;;;2.42;;
